sensor_id;sensor_type;location;lat;lon;timestamp;temperature;humidity
69054;DHT22;56125;52.242;4.756;2023-03-30T00:03:38;18.90;48.50
69054;DHT22;56125;52.242;4.756;2023-03-30T00:08:39;18.90;48.50
69054;DHT22;56125;52.242;4.756;2023-03-30T00:13:41;18.80;48.30
69054;DHT22;56125;52.242;4.756;2023-03-30T00:18:43;18.90;48.40
69054;DHT22;56125;52.242;4.756;2023-03-30T00:23:47;18.90;48.30
69054;DHT22;56125;52.242;4.756;2023-03-30T00:28:49;18.80;48.30
69054;DHT22;56125;52.242;4.756;2023-03-30T00:33:50;18.90;48.20
69054;DHT22;56125;52.242;4.756;2023-03-30T00:38:51;18.90;48.20
69054;DHT22;56125;52.242;4.756;2023-03-30T00:44:08;18.80;47.40
69054;DHT22;56125;52.242;4.756;2023-03-30T00:49:28;18.80;48.00
69054;DHT22;56125;52.242;4.756;2023-03-30T00:54:31;18.80;48.00
69054;DHT22;56125;52.242;4.756;2023-03-30T00:59:32;18.80;48.10
69054;DHT22;56125;52.242;4.756;2023-03-30T01:04:34;18.80;48.10
69054;DHT22;56125;52.242;4.756;2023-03-30T01:09:40;18.80;48.20
69054;DHT22;56125;52.242;4.756;2023-03-30T01:14:42;18.80;48.00
69054;DHT22;56125;52.242;4.756;2023-03-30T01:20:11;18.80;48.90
69054;DHT22;56125;52.242;4.756;2023-03-30T01:30:46;18.80;48.40
69054;DHT22;56125;52.242;4.756;2023-03-30T01:36:08;18.80;48.30
69054;DHT22;56125;52.242;4.756;2023-03-30T01:41:26;18.80;48.30
69054;DHT22;56125;52.242;4.756;2023-03-30T01:46:36;18.80;48.20
69054;DHT22;56125;52.242;4.756;2023-03-30T01:51:54;18.80;48.30
69054;DHT22;56125;52.242;4.756;2023-03-30T01:57:13;18.80;48.30
69054;DHT22;56125;52.242;4.756;2023-03-30T02:02:16;18.80;48.30
69054;DHT22;56125;52.242;4.756;2023-03-30T02:07:21;18.80;48.30
69054;DHT22;56125;52.242;4.756;2023-03-30T02:12:24;18.80;48.40
69054;DHT22;56125;52.242;4.756;2023-03-30T02:17:29;18.80;48.30
69054;DHT22;56125;52.242;4.756;2023-03-30T02:22:30;18.80;48.60
69054;DHT22;56125;52.242;4.756;2023-03-30T02:27:32;18.70;48.50
69054;DHT22;56125;52.242;4.756;2023-03-30T02:32:43;18.70;48.50
69054;DHT22;56125;52.242;4.756;2023-03-30T02:53:46;18.70;48.70
69054;DHT22;56125;52.242;4.756;2023-03-30T02:59:10;18.70;48.60
69054;DHT22;56125;52.242;4.756;2023-03-30T03:04:13;18.70;48.80
69054;DHT22;56125;52.242;4.756;2023-03-30T03:09:15;18.70;48.90
69054;DHT22;56125;52.242;4.756;2023-03-30T03:14:16;18.70;48.90
69054;DHT22;56125;52.242;4.756;2023-03-30T03:19:17;18.70;48.90
69054;DHT22;56125;52.242;4.756;2023-03-30T03:24:18;18.70;49.00
69054;DHT22;56125;52.242;4.756;2023-03-30T03:29:19;18.70;49.00
69054;DHT22;56125;52.242;4.756;2023-03-30T03:34:21;18.70;48.90
69054;DHT22;56125;52.242;4.756;2023-03-30T03:39:25;18.70;49.00
69054;DHT22;56125;52.242;4.756;2023-03-30T03:44:26;18.70;49.00
69054;DHT22;56125;52.242;4.756;2023-03-30T03:49:27;18.70;49.00
69054;DHT22;56125;52.242;4.756;2023-03-30T03:54:28;18.70;49.10
69054;DHT22;56125;52.242;4.756;2023-03-30T03:59:30;18.70;49.00
69054;DHT22;56125;52.242;4.756;2023-03-30T04:04:31;18.70;49.10
69054;DHT22;56125;52.242;4.756;2023-03-30T04:09:32;18.70;49.00
69054;DHT22;56125;52.242;4.756;2023-03-30T04:14:33;18.60;49.40
69054;DHT22;56125;52.242;4.756;2023-03-30T04:19:34;18.70;49.10
69054;DHT22;56125;52.242;4.756;2023-03-30T04:24:35;18.70;49.70
69054;DHT22;56125;52.242;4.756;2023-03-30T04:29:36;18.10;48.90
69054;DHT22;56125;52.242;4.756;2023-03-30T04:34:40;18.70;49.20
69054;DHT22;56125;52.242;4.756;2023-03-30T04:39:43;18.70;49.20
69054;DHT22;56125;52.242;4.756;2023-03-30T04:44:44;18.70;49.20
69054;DHT22;56125;52.242;4.756;2023-03-30T04:49:45;18.70;49.20
69054;DHT22;56125;52.242;4.756;2023-03-30T04:54:46;18.70;49.20
69054;DHT22;56125;52.242;4.756;2023-03-30T04:59:47;18.70;49.20
69054;DHT22;56125;52.242;4.756;2023-03-30T05:04:48;18.70;49.20
69054;DHT22;56125;52.242;4.756;2023-03-30T05:09:49;18.70;49.10
69054;DHT22;56125;52.242;4.756;2023-03-30T05:14:51;18.70;49.30
69054;DHT22;56125;52.242;4.756;2023-03-30T05:19:52;18.60;49.20
69054;DHT22;56125;52.242;4.756;2023-03-30T05:24:54;18.70;49.30
69054;DHT22;56125;52.242;4.756;2023-03-30T05:29:55;18.70;49.90
69054;DHT22;56125;52.242;4.756;2023-03-30T05:34:56;18.70;50.20
69054;DHT22;56125;52.242;4.756;2023-03-30T05:39:57;18.60;50.60
69054;DHT22;56125;52.242;4.756;2023-03-30T05:44:58;18.70;50.60
69054;DHT22;56125;52.242;4.756;2023-03-30T05:50:00;18.70;50.40
69054;DHT22;56125;52.242;4.756;2023-03-30T05:55:02;18.70;50.80
69054;DHT22;56125;52.242;4.756;2023-03-30T06:00:04;18.80;51.10
69054;DHT22;56125;52.242;4.756;2023-03-30T06:05:07;18.80;50.90
69054;DHT22;56125;52.242;4.756;2023-03-30T06:10:08;18.80;50.60
69054;DHT22;56125;52.242;4.756;2023-03-30T06:15:10;18.80;50.60
69054;DHT22;56125;52.242;4.756;2023-03-30T06:20:11;18.50;50.30
69054;DHT22;56125;52.242;4.756;2023-03-30T06:25:13;19.50;50.60
69054;DHT22;56125;52.242;4.756;2023-03-30T06:30:15;18.80;49.90
69054;DHT22;56125;52.242;4.756;2023-03-30T06:35:16;18.80;50.20
69054;DHT22;56125;52.242;4.756;2023-03-30T06:40:17;18.80;49.90
69054;DHT22;56125;52.242;4.756;2023-03-30T06:45:18;18.80;49.90
69054;DHT22;56125;52.242;4.756;2023-03-30T06:50:20;18.80;50.00
69054;DHT22;56125;52.242;4.756;2023-03-30T06:55:21;18.80;49.90
69054;DHT22;56125;52.242;4.756;2023-03-30T07:00:22;18.80;49.70
69054;DHT22;56125;52.242;4.756;2023-03-30T07:05:23;18.80;49.90
69054;DHT22;56125;52.242;4.756;2023-03-30T07:10:25;18.80;49.70
69054;DHT22;56125;52.242;4.756;2023-03-30T07:15:26;18.80;49.90
69054;DHT22;56125;52.242;4.756;2023-03-30T07:20:27;18.80;49.70
69054;DHT22;56125;52.242;4.756;2023-03-30T07:25:29;19.00;49.90
69054;DHT22;56125;52.242;4.756;2023-03-30T07:30:30;18.90;49.70
69054;DHT22;56125;52.242;4.756;2023-03-30T07:35:31;19.00;49.70
69054;DHT22;56125;52.242;4.756;2023-03-30T07:40:32;19.00;49.70
69054;DHT22;56125;52.242;4.756;2023-03-30T07:45:33;19.00;49.60
69054;DHT22;56125;52.242;4.756;2023-03-30T07:50:34;18.90;49.50
69054;DHT22;56125;52.242;4.756;2023-03-30T07:55:35;18.90;49.50
69054;DHT22;56125;52.242;4.756;2023-03-30T08:00:37;18.90;49.40
69054;DHT22;56125;52.242;4.756;2023-03-30T08:05:39;18.90;49.30
69054;DHT22;56125;52.242;4.756;2023-03-30T08:10:40;18.90;49.30
69054;DHT22;56125;52.242;4.756;2023-03-30T08:15:41;18.90;49.30
69054;DHT22;56125;52.242;4.756;2023-03-30T08:20:43;18.90;49.30
69054;DHT22;56125;52.242;4.756;2023-03-30T08:25:44;18.90;49.30
69054;DHT22;56125;52.242;4.756;2023-03-30T08:30:52;19.00;49.40
69054;DHT22;56125;52.242;4.756;2023-03-30T08:35:54;19.00;49.40
69054;DHT22;56125;52.242;4.756;2023-03-30T08:40:55;18.90;49.30
69054;DHT22;56125;52.242;4.756;2023-03-30T08:46:00;19.00;49.40
69054;DHT22;56125;52.242;4.756;2023-03-30T08:56:22;19.00;49.20
69054;DHT22;56125;52.242;4.756;2023-03-30T09:07:06;19.00;49.20
69054;DHT22;56125;52.242;4.756;2023-03-30T09:12:47;19.10;50.20
69054;DHT22;56125;52.242;4.756;2023-03-30T09:17:59;19.10;49.10
69054;DHT22;56125;52.242;4.756;2023-03-30T09:23:02;18.70;48.90
69054;DHT22;56125;52.242;4.756;2023-03-30T09:38:52;19.10;48.90
69054;DHT22;56125;52.242;4.756;2023-03-30T09:43:55;19.10;48.80
69054;DHT22;56125;52.242;4.756;2023-03-30T09:49:12;19.10;48.70
69054;DHT22;56125;52.242;4.756;2023-03-30T09:54:14;19.10;48.60
69054;DHT22;56125;52.242;4.756;2023-03-30T09:59:32;19.10;47.60
69054;DHT22;56125;52.242;4.756;2023-03-30T10:09:53;19.10;48.60
69054;DHT22;56125;52.242;4.756;2023-03-30T10:15:00;19.10;48.50
69054;DHT22;56125;52.242;4.756;2023-03-30T10:20:26;19.10;48.50
69054;DHT22;56125;52.242;4.756;2023-03-30T10:25:29;19.10;48.40
69054;DHT22;56125;52.242;4.756;2023-03-30T10:30:32;19.50;48.60
69054;DHT22;56125;52.242;4.756;2023-03-30T10:35:35;19.10;48.40
69054;DHT22;56125;52.242;4.756;2023-03-30T10:40:41;19.20;48.20
69054;DHT22;56125;52.242;4.756;2023-03-30T10:45:47;19.20;48.20
69054;DHT22;56125;52.242;4.756;2023-03-30T10:50:56;19.10;48.20
69054;DHT22;56125;52.242;4.756;2023-03-30T11:01:10;19.10;48.10
69054;DHT22;56125;52.242;4.756;2023-03-30T11:06:18;19.20;48.10
69054;DHT22;56125;52.242;4.756;2023-03-30T11:11:22;19.20;49.10
69054;DHT22;56125;52.242;4.756;2023-03-30T11:16:25;19.20;48.10
69054;DHT22;56125;52.242;4.756;2023-03-30T11:21:34;19.20;48.10
69054;DHT22;56125;52.242;4.756;2023-03-30T11:27:00;19.20;48.10
69054;DHT22;56125;52.242;4.756;2023-03-30T11:32:28;19.20;48.10
69054;DHT22;56125;52.242;4.756;2023-03-30T11:37:34;19.30;48.10
69054;DHT22;56125;52.242;4.756;2023-03-30T11:42:37;19.20;48.10
69054;DHT22;56125;52.242;4.756;2023-03-30T11:48:12;19.20;48.00
69054;DHT22;56125;52.242;4.756;2023-03-30T11:53:36;18.90;47.90
69054;DHT22;56125;52.242;4.756;2023-03-30T11:58:57;19.20;48.10
69054;DHT22;56125;52.242;4.756;2023-03-30T12:04:13;19.30;48.10
69054;DHT22;56125;52.242;4.756;2023-03-30T12:15:02;19.40;48.10
69054;DHT22;56125;52.242;4.756;2023-03-30T12:20:23;19.30;48.10
69054;DHT22;56125;52.242;4.756;2023-03-30T12:30:57;19.30;48.10
69054;DHT22;56125;52.242;4.756;2023-03-30T12:36:19;19.30;48.10
69054;DHT22;56125;52.242;4.756;2023-03-30T12:41:25;19.50;48.30
69054;DHT22;56125;52.242;4.756;2023-03-30T12:51:59;19.30;48.20
69054;DHT22;56125;52.242;4.756;2023-03-30T13:02:37;19.30;48.20
69054;DHT22;56125;52.242;4.756;2023-03-30T13:07:41;19.30;48.20
69054;DHT22;56125;52.242;4.756;2023-03-30T13:12:43;19.30;48.30
69054;DHT22;56125;52.242;4.756;2023-03-30T13:23:26;19.30;48.30
69054;DHT22;56125;52.242;4.756;2023-03-30T13:28:35;19.40;48.50
69054;DHT22;56125;52.242;4.756;2023-03-30T13:33:47;19.30;48.40
69054;DHT22;56125;52.242;4.756;2023-03-30T13:39:07;19.40;48.40
69054;DHT22;56125;52.242;4.756;2023-03-30T13:44:27;19.40;48.40
69054;DHT22;56125;52.242;4.756;2023-03-30T13:49:55;19.40;48.30
69054;DHT22;56125;52.242;4.756;2023-03-30T13:54:58;19.40;48.20
69054;DHT22;56125;52.242;4.756;2023-03-30T14:05:20;19.40;48.10
69054;DHT22;56125;52.242;4.756;2023-03-30T14:10:21;19.40;48.40
69054;DHT22;56125;52.242;4.756;2023-03-30T14:15:34;19.40;48.10
69054;DHT22;56125;52.242;4.756;2023-03-30T14:20:50;19.40;48.00
69054;DHT22;56125;52.242;4.756;2023-03-30T14:25:57;19.40;48.00
69054;DHT22;56125;52.242;4.756;2023-03-30T14:31:01;19.40;48.00
69054;DHT22;56125;52.242;4.756;2023-03-30T14:36:04;19.30;48.00
69054;DHT22;56125;52.242;4.756;2023-03-30T14:41:23;19.40;48.00
69054;DHT22;56125;52.242;4.756;2023-03-30T14:46:40;19.40;48.00
69054;DHT22;56125;52.242;4.756;2023-03-30T14:51:59;18.90;47.80
69054;DHT22;56125;52.242;4.756;2023-03-30T14:57:04;19.40;48.10
69054;DHT22;56125;52.242;4.756;2023-03-30T15:02:18;19.40;48.00
69054;DHT22;56125;52.242;4.756;2023-03-30T15:07:20;19.40;48.10
69054;DHT22;56125;52.242;4.756;2023-03-30T15:12:31;19.40;48.10
69054;DHT22;56125;52.242;4.756;2023-03-30T15:17:34;19.40;48.00
69054;DHT22;56125;52.242;4.756;2023-03-30T15:22:38;20.00;48.40
69054;DHT22;56125;52.242;4.756;2023-03-30T15:27:57;19.40;48.00
69054;DHT22;56125;52.242;4.756;2023-03-30T15:32:58;19.40;48.10
69054;DHT22;56125;52.242;4.756;2023-03-30T15:38:45;19.40;48.10
69054;DHT22;56125;52.242;4.756;2023-03-30T15:43:28;18.90;47.80
69054;DHT22;56125;52.242;4.756;2023-03-30T15:48:34;18.90;47.80
69054;DHT22;56125;52.242;4.756;2023-03-30T15:53:53;19.40;48.10
69054;DHT22;56125;52.242;4.756;2023-03-30T15:58:56;19.40;48.10
69054;DHT22;56125;52.242;4.756;2023-03-30T16:03:59;19.40;48.00
69054;DHT22;56125;52.242;4.756;2023-03-30T16:09:01;19.40;48.00
69054;DHT22;56125;52.242;4.756;2023-03-30T16:14:03;19.40;48.00
69054;DHT22;56125;52.242;4.756;2023-03-30T16:19:12;19.50;48.00
69054;DHT22;56125;52.242;4.756;2023-03-30T16:24:14;19.40;48.00
69054;DHT22;56125;52.242;4.756;2023-03-30T16:29:20;19.40;48.00
69054;DHT22;56125;52.242;4.756;2023-03-30T16:34:24;19.40;48.00
69054;DHT22;56125;52.242;4.756;2023-03-30T16:39:28;19.70;48.10
69054;DHT22;56125;52.242;4.756;2023-03-30T16:44:29;19.40;47.90
69054;DHT22;56125;52.242;4.756;2023-03-30T16:49:30;19.10;47.80
69054;DHT22;56125;52.242;4.756;2023-03-30T16:54:31;19.20;47.80
69054;DHT22;56125;52.242;4.756;2023-03-30T16:59:32;19.80;48.00
69054;DHT22;56125;52.242;4.756;2023-03-30T17:04:33;19.40;47.80
69054;DHT22;56125;52.242;4.756;2023-03-30T17:09:34;19.40;48.10
69054;DHT22;56125;52.242;4.756;2023-03-30T17:14:36;19.40;48.00
69054;DHT22;56125;52.242;4.756;2023-03-30T17:19:37;19.40;48.00
69054;DHT22;56125;52.242;4.756;2023-03-30T17:24:38;19.30;48.00
69054;DHT22;56125;52.242;4.756;2023-03-30T17:29:39;19.40;48.10
69054;DHT22;56125;52.242;4.756;2023-03-30T17:34:40;19.40;48.30
69054;DHT22;56125;52.242;4.756;2023-03-30T17:39:41;19.30;48.20
69054;DHT22;56125;52.242;4.756;2023-03-30T17:44:42;19.30;48.00
69054;DHT22;56125;52.242;4.756;2023-03-30T17:49:43;19.30;48.00
69054;DHT22;56125;52.242;4.756;2023-03-30T17:54:44;19.30;48.20
69054;DHT22;56125;52.242;4.756;2023-03-30T17:59:45;19.30;48.10
69054;DHT22;56125;52.242;4.756;2023-03-30T18:04:46;19.20;48.10
69054;DHT22;56125;52.242;4.756;2023-03-30T18:09:48;19.20;48.10
69054;DHT22;56125;52.242;4.756;2023-03-30T18:14:49;19.20;48.10
69054;DHT22;56125;52.242;4.756;2023-03-30T18:19:50;19.10;48.20
69054;DHT22;56125;52.242;4.756;2023-03-30T18:24:51;19.20;48.30
69054;DHT22;56125;52.242;4.756;2023-03-30T18:29:52;19.20;48.20
69054;DHT22;56125;52.242;4.756;2023-03-30T18:34:53;19.20;48.20
69054;DHT22;56125;52.242;4.756;2023-03-30T18:39:54;19.20;48.20
69054;DHT22;56125;52.242;4.756;2023-03-30T18:44:55;19.20;48.20
69054;DHT22;56125;52.242;4.756;2023-03-30T18:49:56;19.20;48.10
69054;DHT22;56125;52.242;4.756;2023-03-30T18:54:57;19.20;48.30
69054;DHT22;56125;52.242;4.756;2023-03-30T18:59:58;19.20;48.20
69054;DHT22;56125;52.242;4.756;2023-03-30T19:05:02;19.10;48.20
69054;DHT22;56125;52.242;4.756;2023-03-30T19:10:03;19.30;48.30
69054;DHT22;56125;52.242;4.756;2023-03-30T19:15:05;19.10;48.20
69054;DHT22;56125;52.242;4.756;2023-03-30T19:20:06;19.10;48.30
69054;DHT22;56125;52.242;4.756;2023-03-30T19:25:09;19.10;48.20
69054;DHT22;56125;52.242;4.756;2023-03-30T19:30:13;19.10;48.20
69054;DHT22;56125;52.242;4.756;2023-03-30T19:35:16;19.10;48.30
69054;DHT22;56125;52.242;4.756;2023-03-30T19:40:18;19.20;48.40
69054;DHT22;56125;52.242;4.756;2023-03-30T19:45:20;19.00;48.40
69054;DHT22;56125;52.242;4.756;2023-03-30T19:50:22;19.00;48.50
69054;DHT22;56125;52.242;4.756;2023-03-30T19:55:25;19.10;48.40
69054;DHT22;56125;52.242;4.756;2023-03-30T20:00:26;19.00;48.30
69054;DHT22;56125;52.242;4.756;2023-03-30T20:05:27;19.10;48.40
69054;DHT22;56125;52.242;4.756;2023-03-30T20:10:28;18.60;48.20
69054;DHT22;56125;52.242;4.756;2023-03-30T20:15:29;19.00;48.40
69054;DHT22;56125;52.242;4.756;2023-03-30T20:20:30;19.00;48.50
69054;DHT22;56125;52.242;4.756;2023-03-30T20:25:34;19.00;48.50
69054;DHT22;56125;52.242;4.756;2023-03-30T20:30:36;19.00;48.50
69054;DHT22;56125;52.242;4.756;2023-03-30T20:35:37;19.00;48.40
69054;DHT22;56125;52.242;4.756;2023-03-30T20:40:38;19.00;48.50
69054;DHT22;56125;52.242;4.756;2023-03-30T20:45:39;18.90;48.40
69054;DHT22;56125;52.242;4.756;2023-03-30T20:50:45;18.90;48.50
69054;DHT22;56125;52.242;4.756;2023-03-30T20:55:46;18.90;48.50
69054;DHT22;56125;52.242;4.756;2023-03-30T21:00:51;18.90;48.50
69054;DHT22;56125;52.242;4.756;2023-03-30T21:06:00;19.40;48.80
69054;DHT22;56125;52.242;4.756;2023-03-30T21:11:02;18.90;48.60
69054;DHT22;56125;52.242;4.756;2023-03-30T21:16:05;18.90;48.60
69054;DHT22;56125;52.242;4.756;2023-03-30T21:21:07;18.90;48.60
69054;DHT22;56125;52.242;4.756;2023-03-30T21:26:08;18.90;48.60
69054;DHT22;56125;52.242;4.756;2023-03-30T21:31:11;18.80;48.70
69054;DHT22;56125;52.242;4.756;2023-03-30T21:36:13;18.90;48.70
69054;DHT22;56125;52.242;4.756;2023-03-30T21:41:18;18.80;48.60
69054;DHT22;56125;52.242;4.756;2023-03-30T21:46:22;18.80;48.70
69054;DHT22;56125;52.242;4.756;2023-03-30T21:51:26;18.80;48.60
69054;DHT22;56125;52.242;4.756;2023-03-30T21:56:29;18.80;48.90
69054;DHT22;56125;52.242;4.756;2023-03-30T22:01:30;18.80;48.70
69054;DHT22;56125;52.242;4.756;2023-03-30T22:06:31;18.80;49.70
69054;DHT22;56125;52.242;4.756;2023-03-30T22:11:32;18.80;48.70
69054;DHT22;56125;52.242;4.756;2023-03-30T22:16:34;18.80;48.80
69054;DHT22;56125;52.242;4.756;2023-03-30T22:21:36;18.80;48.70
69054;DHT22;56125;52.242;4.756;2023-03-30T22:26:37;18.80;48.80
69054;DHT22;56125;52.242;4.756;2023-03-30T22:31:41;18.80;48.80
69054;DHT22;56125;52.242;4.756;2023-03-30T22:36:42;18.80;48.80
69054;DHT22;56125;52.242;4.756;2023-03-30T22:41:44;18.70;48.60
69054;DHT22;56125;52.242;4.756;2023-03-30T22:46:45;18.80;48.80
69054;DHT22;56125;52.242;4.756;2023-03-30T22:51:46;18.70;48.70
69054;DHT22;56125;52.242;4.756;2023-03-30T22:56:49;18.80;48.80
69054;DHT22;56125;52.242;4.756;2023-03-30T23:01:51;19.00;48.90
69054;DHT22;56125;52.242;4.756;2023-03-30T23:06:52;18.70;48.70
69054;DHT22;56125;52.242;4.756;2023-03-30T23:11:54;18.70;48.60
69054;DHT22;56125;52.242;4.756;2023-03-30T23:16:55;18.70;48.80
69054;DHT22;56125;52.242;4.756;2023-03-30T23:21:57;18.70;48.70
69054;DHT22;56125;52.242;4.756;2023-03-30T23:26:58;18.70;48.60
69054;DHT22;56125;52.242;4.756;2023-03-30T23:31:59;18.60;48.80
69054;DHT22;56125;52.242;4.756;2023-03-30T23:37:02;18.70;48.70
69054;DHT22;56125;52.242;4.756;2023-03-30T23:42:03;18.70;48.70
69054;DHT22;56125;52.242;4.756;2023-03-30T23:47:04;18.20;48.40
69054;DHT22;56125;52.242;4.756;2023-03-30T23:52:05;18.70;48.80
69054;DHT22;56125;52.242;4.756;2023-03-30T23:57:07;18.70;48.90
